CheckWX is a tool to help pilots better visualize weather data.  It is not intended as a substitute for an official pre-flight weather briefing.

17:37:42 UTC

CYKF TAF
Waterloo Airport
Kitchener, Canada
TAF CYKF 280738Z 2808/2820 17008KT P6SM FEW060 SCT230 FM280900 19008KT P6SM SCT060 OVC120 FM281300 19010G20KT P6SM OVC040 FM281500 19010G20KT P6SM -RA OVC025 TEMPO 2815/2817 4SM -RA BR OVC015 FM281700 18012KT 6SM -RA BR OVC012 TEMPO 2817/2820 2SM -RA BR OVC008 RMK FCST BASED ON AUTO OBS. NXT FCST BY 281400Z

May-28@
08:00 UTC

May-28 @ 08:00 UTC

May-28@
09:00 UTC

May-28 @ 09:00 UTC

TAF CYKF 280738Z 2808/2820 17008KT P6SM FEW060 SCT230

Expired

Wind
  • 170° at 8 KTS
Cloud Levels
  • Few at 6,000' AGL
  • Scattered at 23,000' AGL

May-28@
09:00 UTC

May-28 @ 09:00 UTC

May-28@
13:00 UTC

May-28 @ 13:00 UTC

FM280900 19008KT P6SM SCT060 OVC120

Expired

Wind
  • 190° at 8 KTS
Cloud Levels
  • Scattered at 6,000' AGL
  • Overcast at 12,000' AGL

May-28@
13:00 UTC

May-28 @ 13:00 UTC

May-28@
15:00 UTC

May-28 @ 15:00 UTC

FM281300 19010G20KT P6SM OVC040

Expired

Wind
  • 190° at 10 KTS
  • {Gusting to 20 KTS
Cloud Levels
  • Overcast at 4,000' AGL

May-28@
15:00 UTC

May-28 @ 15:00 UTC

May-28@
17:00 UTC

May-28 @ 17:00 UTC

FM281500 19010G20KT P6SM -RA OVC025

Expired

Wind
  • 190° at 10 KTS
  • {Gusting to 20 KTS
Conditions
Light Rain
Cloud Levels
  • Overcast at 2,500' AGL

May-28@
15:00 UTC

May-28 @ 15:00 UTC

May-28@
17:00 UTC

May-28 @ 17:00 UTC

TEMPO 2815/2817 4SM -RA BR OVC015

Expired

Conditions
Light Rain, Mist
Cloud Levels
  • Overcast at 1,500' AGL

May-28@
17:00 UTC

May-28 @ 17:00 UTC

May-28@
20:00 UTC

May-28 @ 20:00 UTC

FM281700 18012KT 6SM -RA BR OVC012

From

From Standard forecast or significant change

Wind
  • 180° at 12 KTS
Conditions
Light Rain, Mist
Cloud Levels
  • Overcast at 1,200' AGL

May-28@
17:00 UTC

May-28 @ 17:00 UTC

May-28@
20:00 UTC

May-28 @ 20:00 UTC

TEMPO 2817/2820 2SM -RA BR OVC008 RMK FCST BASED ON AUTO OBS. NXT FCST BY 281400Z

Temporary

Temporary Changes expected for less than half the time period

Conditions
Light Rain, Mist
Cloud Levels
  • Overcast at 800' AGL